createdAt,value
2017-11-01T00:00:51.767Z,11.87
2017-11-01T00:03:19.251Z,10.47
2017-11-01T00:05:46.751Z,11.13
2017-11-01T00:08:14.306Z,12.60
2017-11-01T00:10:41.791Z,9.07
2017-11-01T00:13:09.279Z,10.03
2017-11-01T00:15:36.812Z,11.67
2017-11-01T00:18:04.292Z,11.07
2017-11-01T00:20:31.783Z,10.73
2017-11-01T00:22:59.337Z,10.77
2017-11-01T00:25:26.820Z,12.30
2017-11-01T00:27:54.390Z,10.23
2017-11-01T00:30:21.952Z,10.67
2017-11-01T00:32:49.431Z,11.97
2017-11-01T00:35:16.910Z,11.20
2017-11-01T00:37:44.423Z,12.03
2017-11-01T00:40:11.955Z,14.27
2017-11-01T00:42:39.488Z,11.07
2017-11-01T00:45:06.970Z,11.87
2017-11-01T00:47:34.461Z,11.53
2017-11-01T00:52:35.884Z,11.67
2017-11-01T00:55:03.415Z,12.47
2017-11-01T00:57:30.901Z,11.90
2017-11-01T00:59:58.393Z,13.93
2017-11-01T01:02:25.915Z,12.20
2017-11-01T01:04:53.400Z,13.30
2017-11-01T01:07:20.890Z,13.87
2017-11-01T01:09:48.425Z,12.73
2017-11-01T01:12:15.915Z,12.53
2017-11-01T01:14:43.404Z,15.00
2017-11-01T01:17:10.940Z,12.37
2017-11-01T01:19:38.420Z,13.40
2017-11-01T01:22:05.903Z,13.40
2017-11-01T01:24:33.437Z,14.40
2017-11-01T01:27:01.026Z,16.00
2017-11-01T01:29:28.565Z,15.10
2017-11-01T01:31:56.051Z,13.77
2017-11-01T01:34:23.535Z,17.10
2017-11-01T01:36:51.048Z,20.10
2017-11-01T01:39:18.570Z,19.37
2017-11-01T01:41:46.296Z,17.90
2017-11-01T01:44:13.848Z,17.30
2017-11-01T01:46:41.364Z,18.23
2017-11-01T01:49:08.849Z,17.10
2017-11-01T01:51:36.335Z,19.00
2017-11-01T01:54:03.860Z,21.03
2017-11-01T01:56:31.343Z,21.27
2017-11-01T01:58:58.833Z,19.00
2017-11-01T02:01:26.441Z,19.97
2017-11-01T02:03:53.931Z,20.93
2017-11-01T02:06:21.423Z,19.40
2017-11-01T02:08:48.962Z,22.53
2017-11-01T02:11:16.471Z,19.83
2017-11-01T02:13:43.956Z,22.40
2017-11-01T02:16:11.589Z,22.30
2017-11-01T02:18:39.076Z,22.87
2017-11-01T02:21:06.556Z,24.53
2017-11-01T02:23:34.111Z,22.67
2017-11-01T02:26:01.603Z,23.03
2017-11-01T02:28:29.092Z,23.10
2017-11-01T02:30:56.625Z,24.20
2017-11-01T02:33:24.126Z,22.60
2017-11-01T02:35:51.611Z,21.70
2017-11-01T02:38:19.204Z,23.17
2017-11-01T02:40:46.705Z,25.13
2017-11-01T02:43:14.195Z,24.70
2017-11-01T02:45:41.736Z,22.60
2017-11-01T02:48:09.240Z,21.27
2017-11-01T02:50:36.732Z,24.97
2017-11-01T02:53:04.252Z,23.50
2017-11-01T02:55:31.738Z,23.77
2017-11-01T02:57:59.228Z,24.03
2017-11-01T03:00:26.856Z,25.53
2017-11-01T03:02:54.347Z,23.90
2017-11-01T03:05:21.823Z,24.50
2017-11-01T03:07:49.402Z,22.60
2017-11-01T03:10:16.970Z,24.73
2017-11-01T03:12:44.464Z,25.50
2017-11-01T03:15:11.976Z,23.13
2017-11-01T03:17:39.487Z,24.80
2017-11-01T03:20:07.024Z,21.93
2017-11-01T03:22:34.557Z,24.53
2017-11-01T03:25:02.044Z,22.93
2017-11-01T03:27:29.675Z,25.80
2017-11-01T03:29:57.177Z,27.03
2017-11-01T03:32:24.665Z,25.17
2017-11-01T03:34:52.175Z,27.73
2017-11-01T03:37:19.656Z,27.97
2017-11-01T03:39:47.172Z,28.47
2017-11-01T03:42:14.736Z,25.50
2017-11-01T03:44:42.308Z,25.20
2017-11-01T03:47:09.819Z,27.10
2017-11-01T03:49:37.309Z,25.80
2017-11-01T03:52:04.863Z,28.73
2017-11-01T03:54:32.352Z,25.10
2017-11-01T03:56:59.836Z,27.20
2017-11-01T03:59:27.354Z,28.27
2017-11-01T04:01:54.843Z,26.17
2017-11-01T04:04:22.365Z,27.00
2017-11-01T04:06:49.868Z,29.27
2017-11-01T04:09:17.409Z,26.93
2017-11-01T04:11:44.928Z,28.53
2017-11-01T04:14:12.417Z,25.47
2017-11-01T04:16:39.966Z,29.73
2017-11-01T04:19:09.389Z,27.30
2017-11-01T04:21:38.855Z,27.83
2017-11-01T04:24:06.390Z,31.17
2017-11-01T04:26:33.963Z,27.87
2017-11-01T04:29:01.447Z,31.10
2017-11-01T04:31:28.995Z,28.20
2017-11-01T04:33:56.483Z,28.50
2017-11-01T04:36:23.977Z,28.90
2017-11-01T04:38:51.511Z,30.70
2017-11-01T04:41:19.052Z,30.50
2017-11-01T04:43:46.538Z,27.23
2017-11-01T04:46:14.084Z,29.13
2017-11-01T04:48:41.572Z,28.60
2017-11-01T04:51:10.969Z,27.60
2017-11-01T04:53:40.288Z,30.77
2017-11-01T04:56:10.766Z,26.77
2017-11-01T04:58:38.254Z,26.90
2017-11-01T05:01:05.747Z,29.20
2017-11-01T05:03:33.287Z,26.63
2017-11-01T05:06:00.786Z,27.30
2017-11-01T05:08:33.849Z,26.63
2017-11-01T05:11:06.872Z,27.63
2017-11-01T05:13:35.187Z,28.10
2017-11-01T05:16:03.462Z,27.67
2017-11-01T05:18:30.950Z,26.40
2017-11-01T05:20:58.488Z,27.47
2017-11-01T05:23:26.067Z,28.30
2017-11-01T05:25:55.463Z,26.03
2017-11-01T05:28:22.971Z,25.57
2017-11-01T05:30:50.509Z,26.30
2017-11-01T05:33:18.001Z,26.60
2017-11-01T05:35:45.495Z,22.70
2017-11-01T05:38:13.029Z,25.93
2017-11-01T05:40:40.525Z,24.00
2017-11-01T05:43:08.075Z,23.23
2017-11-01T05:45:35.603Z,33.30
2017-11-01T05:48:03.104Z,22.63
2017-11-01T05:50:33.608Z,27.73
2017-11-01T05:53:01.375Z,23.97
2017-11-01T05:55:28.859Z,21.97
2017-11-01T05:57:56.343Z,21.70
2017-11-01T06:00:24.159Z,22.20
2017-11-01T06:02:51.646Z,22.50
2017-11-01T06:05:19.185Z,22.30
2017-11-01T06:07:46.708Z,25.23
2017-11-01T06:10:14.202Z,19.97
2017-11-01T06:12:41.774Z,33.10
2017-11-01T06:15:09.515Z,23.77
2017-11-01T06:17:37.003Z,20.57
2017-11-01T06:20:04.499Z,21.23
2017-11-01T06:22:32.012Z,24.87
2017-11-01T06:24:59.538Z,26.13
2017-11-01T06:27:27.057Z,24.80
2017-11-01T06:29:54.546Z,20.20
2017-11-01T06:32:22.118Z,23.27
2017-11-01T06:34:49.644Z,33.00
2017-11-01T06:37:17.134Z,35.77
2017-11-01T06:39:44.695Z,21.13
2017-11-01T06:42:12.259Z,20.73
2017-11-01T06:44:39.977Z,20.80
2017-11-01T06:47:07.484Z,18.90
2017-11-01T06:49:35.028Z,19.80
2017-11-01T06:52:02.508Z,19.00
2017-11-01T06:54:30.000Z,19.57
2017-11-01T06:56:57.511Z,25.97
2017-11-01T06:59:25.075Z,25.30
2017-11-01T07:01:52.601Z,31.07
2017-11-01T07:04:20.097Z,19.10
2017-11-01T07:06:47.588Z,19.43
2017-11-01T07:09:15.118Z,40.40
2017-11-01T07:11:42.685Z,31.73
2017-11-01T07:14:10.168Z,28.53
2017-11-01T07:16:37.731Z,21.60
2017-11-01T07:19:05.230Z,19.30
2017-11-01T07:21:32.800Z,19.10
2017-11-01T07:24:00.317Z,20.73
2017-11-01T07:26:27.916Z,18.30
2017-11-01T07:28:55.424Z,23.43
2017-11-01T07:31:22.946Z,19.23
2017-11-01T07:33:50.472Z,29.80
2017-11-01T07:36:17.960Z,23.90
2017-11-01T07:38:45.454Z,18.80
2017-11-01T07:41:13.082Z,20.03
2017-11-01T07:43:40.577Z,19.00
2017-11-01T07:46:08.093Z,20.50
2017-11-01T07:48:35.656Z,20.40
2017-11-01T07:51:03.211Z,19.40
2017-11-01T07:53:30.691Z,19.13
2017-11-01T07:55:58.236Z,20.67
2017-11-01T07:58:25.782Z,18.40
2017-11-01T08:00:53.272Z,18.67
2017-11-01T08:03:20.800Z,19.67
2017-11-01T08:05:48.287Z,18.03
2017-11-01T08:08:15.781Z,17.83
2017-11-01T08:10:43.305Z,18.60
2017-11-01T08:13:10.795Z,19.10
2017-11-01T08:15:38.286Z,19.23
2017-11-01T08:18:05.795Z,19.30
2017-11-01T08:20:33.313Z,17.43
2017-11-01T08:23:00.833Z,18.43
2017-11-01T08:25:28.321Z,14.80
2017-11-01T08:27:55.826Z,15.93
2017-11-01T08:30:23.348Z,13.33
2017-11-01T08:32:50.836Z,12.00
2017-11-01T08:35:18.340Z,13.17
2017-11-01T08:37:45.924Z,15.67
2017-11-01T08:40:13.427Z,12.50
2017-11-01T08:42:41.048Z,11.33
2017-11-01T08:45:08.605Z,13.90
2017-11-01T08:47:36.093Z,12.90
2017-11-01T08:50:03.612Z,11.87
2017-11-01T08:52:31.140Z,11.70
2017-11-01T08:54:58.726Z,9.70
2017-11-01T08:57:26.219Z,10.50
2017-11-01T08:59:53.751Z,10.30
2017-11-01T09:02:21.244Z,11.63
2017-11-01T09:04:48.729Z,9.63
2017-11-01T09:07:16.256Z,9.60
2017-11-01T09:09:43.752Z,11.33
2017-11-01T09:12:11.237Z,9.60
2017-11-01T09:14:38.772Z,7.80
2017-11-01T09:17:06.272Z,8.87
2017-11-01T09:19:33.809Z,8.87
2017-11-01T09:22:01.351Z,9.33
2017-11-01T09:24:28.944Z,9.20
2017-11-01T09:26:56.427Z,8.40
2017-11-01T09:29:23.959Z,9.27
2017-11-01T09:31:51.443Z,8.80
2017-11-01T09:34:18.945Z,10.30
2017-11-01T09:36:46.481Z,9.70
2017-11-01T09:39:13.987Z,12.10
2017-11-01T09:41:41.475Z,9.90
2017-11-01T09:44:09.012Z,9.20
2017-11-01T09:46:36.546Z,7.23
2017-11-01T09:49:04.117Z,8.93
2017-11-01T09:51:31.611Z,11.50
2017-11-01T09:53:59.249Z,9.40
2017-11-01T09:56:26.796Z,9.87
2017-11-01T09:58:54.276Z,8.97
2017-11-01T10:01:21.767Z,8.93
2017-11-01T10:03:49.279Z,10.33
2017-11-01T10:06:16.769Z,10.50
2017-11-01T10:08:44.304Z,12.10
2017-11-01T10:11:11.791Z,9.73
2017-11-01T10:13:39.275Z,12.10
2017-11-01T10:16:06.804Z,9.60
2017-11-01T10:18:34.316Z,13.93
2017-11-01T10:21:01.811Z,12.77
2017-11-01T10:23:29.444Z,13.60
2017-11-01T10:25:56.935Z,15.87
2017-11-01T10:28:24.442Z,14.90
2017-11-01T10:30:52.007Z,15.57
2017-11-01T10:33:19.496Z,17.80
2017-11-01T10:35:47.038Z,16.47
2017-11-01T10:38:14.530Z,15.30
2017-11-01T10:40:42.018Z,16.97
2017-11-01T10:43:09.548Z,15.70
2017-11-01T10:45:37.052Z,16.80
2017-11-01T10:48:04.615Z,18.50
2017-11-01T10:50:32.143Z,16.17
2017-11-01T10:52:59.686Z,18.87
2017-11-01T10:55:27.181Z,18.40
2017-11-01T10:57:54.687Z,21.17
2017-11-01T11:00:22.323Z,22.57
2017-11-01T11:02:49.832Z,19.07
2017-11-01T11:05:17.372Z,21.97
2017-11-01T11:07:44.860Z,21.77
2017-11-01T11:10:12.363Z,21.53
2017-11-01T11:12:39.883Z,24.30
2017-11-01T11:15:07.456Z,25.27
2017-11-01T11:17:34.955Z,23.33
2017-11-01T11:20:02.484Z,22.40
2017-11-01T11:22:29.976Z,25.50
2017-11-01T11:24:57.470Z,25.60
2017-11-01T11:27:25.003Z,24.40
2017-11-01T11:29:52.518Z,28.13
2017-11-01T11:32:20.043Z,26.70
2017-11-01T11:34:47.566Z,27.70
2017-11-01T11:37:15.067Z,25.97
2017-11-01T11:39:42.640Z,26.57
2017-11-01T11:42:10.173Z,27.93
2017-11-01T11:44:37.666Z,31.57
2017-11-01T11:47:05.163Z,29.00
2017-11-01T11:49:32.693Z,26.90
2017-11-01T11:52:00.200Z,29.37
2017-11-01T11:54:27.701Z,29.63
2017-11-01T11:56:55.240Z,25.90
2017-11-01T11:59:22.832Z,26.70
2017-11-01T12:01:50.325Z,28.37
2017-11-01T12:04:17.861Z,27.43
2017-11-01T12:06:45.354Z,28.50
2017-11-01T12:09:12.912Z,29.53
2017-11-01T12:11:40.429Z,31.47
2017-11-01T12:14:07.949Z,23.63
2017-11-01T12:16:35.441Z,25.30
2017-11-01T12:19:02.931Z,26.23
2017-11-01T12:21:30.596Z,27.30
2017-11-01T12:23:58.090Z,25.80
2017-11-01T12:26:25.584Z,22.93
2017-11-01T12:28:53.120Z,24.50
2017-11-01T12:31:20.620Z,23.90
2017-11-01T12:33:48.108Z,21.43
2017-11-01T12:36:15.651Z,21.27
2017-11-01T12:38:43.147Z,31.40
2017-11-01T12:41:10.646Z,23.73
2017-11-01T12:43:38.268Z,23.43
2017-11-01T12:46:05.766Z,20.43
2017-11-01T12:48:33.381Z,22.47
2017-11-01T12:51:00.938Z,27.10
2017-11-01T12:53:28.504Z,25.53
2017-11-01T12:55:56.044Z,25.97
2017-11-01T12:58:23.642Z,25.23
2017-11-01T13:00:51.154Z,26.03
2017-11-01T13:03:18.699Z,31.80
2017-11-01T13:05:46.195Z,28.53
2017-11-01T13:08:13.703Z,24.67
2017-11-01T13:10:41.215Z,24.27
2017-11-01T13:13:08.715Z,23.93
2017-11-01T13:15:36.238Z,26.37
2017-11-01T13:18:03.735Z,28.83
2017-11-01T13:20:31.241Z,25.90
2017-11-01T13:22:58.761Z,26.10
2017-11-01T13:25:26.264Z,27.13
2017-11-01T13:27:53.785Z,26.67
2017-11-01T13:30:21.271Z,24.10
2017-11-01T13:32:48.812Z,26.80
2017-11-01T13:35:16.299Z,25.27
2017-11-01T13:37:43.883Z,24.80
2017-11-01T13:40:11.466Z,26.50
2017-11-01T13:42:38.956Z,28.47
2017-11-01T13:45:06.449Z,27.67
2017-11-01T13:47:34.011Z,27.37
2017-11-01T13:50:01.507Z,26.00
2017-11-01T13:52:28.997Z,28.43
2017-11-01T13:54:56.567Z,36.50
2017-11-01T13:57:24.062Z,24.67
2017-11-01T13:59:51.563Z,29.17
2017-11-01T14:02:19.088Z,36.97
2017-11-01T14:04:46.609Z,30.13
2017-11-01T14:07:14.106Z,28.50
2017-11-01T14:09:41.659Z,27.27
2017-11-01T14:12:09.172Z,28.50
2017-11-01T14:14:36.686Z,27.20
2017-11-01T14:17:04.297Z,27.37
2017-11-01T14:19:31.789Z,27.27
2017-11-01T14:21:59.340Z,27.03
2017-11-01T14:24:26.831Z,27.30
2017-11-01T14:26:54.424Z,32.33
2017-11-01T14:29:22.002Z,30.40
2017-11-01T14:31:49.489Z,27.30
2017-11-01T14:34:16.979Z,28.03
2017-11-01T14:36:44.527Z,29.80
2017-11-01T14:39:12.040Z,29.77
2017-11-01T14:41:39.532Z,29.10
2017-11-01T14:44:07.140Z,30.27
2017-11-01T14:46:34.700Z,28.90
2017-11-01T14:49:02.283Z,28.60
2017-11-01T14:51:29.797Z,32.37
2017-11-01T14:53:57.357Z,30.00
2017-11-01T14:56:24.878Z,28.03
2017-11-01T14:58:52.384Z,27.50
2017-11-01T15:01:19.927Z,26.77
2017-11-01T15:03:47.418Z,28.57
2017-11-01T15:06:14.968Z,28.30
2017-11-01T15:08:42.499Z,28.10
2017-11-01T15:11:10.009Z,30.73
2017-11-01T15:13:37.504Z,27.70
2017-11-01T15:16:05.023Z,27.50
2017-11-01T15:18:32.515Z,30.30
2017-11-01T15:21:00.038Z,29.17
2017-11-01T15:23:27.591Z,32.27
2017-11-01T15:25:55.113Z,31.43
2017-11-01T15:28:22.606Z,29.33
2017-11-01T15:30:50.159Z,32.67
2017-11-01T15:33:17.700Z,29.13
2017-11-01T15:35:45.193Z,29.07
2017-11-01T15:38:12.684Z,32.80
2017-11-01T15:40:40.216Z,36.40
2017-11-01T15:43:07.716Z,31.27
2017-11-01T15:45:35.306Z,33.50
2017-11-01T15:48:02.834Z,32.07
2017-11-01T15:50:30.391Z,43.67
2017-11-01T15:52:57.884Z,31.60
2017-11-01T15:55:25.452Z,35.37
2017-11-01T15:57:53.930Z,36.63
2017-11-01T16:00:21.481Z,34.03
2017-11-01T16:02:49.048Z,33.77
2017-11-01T16:05:16.597Z,36.63
2017-11-01T16:07:44.088Z,35.33
2017-11-01T16:10:11.615Z,35.10
2017-11-01T16:12:39.116Z,32.30
2017-11-01T16:15:06.636Z,33.93
2017-11-01T16:17:34.200Z,34.07
2017-11-01T16:20:01.692Z,35.47
2017-11-01T16:22:29.215Z,36.67
2017-11-01T16:24:56.727Z,37.00
2017-11-01T16:27:24.277Z,36.67
2017-11-01T16:29:51.799Z,38.57
2017-11-01T16:32:19.350Z,34.90
2017-11-01T16:34:46.874Z,35.73
2017-11-01T16:37:14.392Z,37.60
2017-11-01T16:39:41.916Z,50.37
2017-11-01T16:42:09.502Z,39.77
2017-11-01T16:44:36.991Z,39.30
2017-11-01T16:47:04.528Z,35.43
2017-11-01T16:49:32.050Z,36.40
2017-11-01T16:51:59.618Z,36.20
2017-11-01T16:54:27.152Z,38.20
2017-11-01T16:56:54.639Z,40.33
2017-11-01T16:59:22.137Z,38.50
2017-11-01T17:01:49.680Z,36.90
2017-11-01T17:04:17.178Z,36.67
2017-11-01T17:06:44.684Z,34.00
2017-11-01T17:09:12.227Z,39.83
2017-11-01T17:11:39.720Z,35.97
2017-11-01T17:14:07.238Z,36.20
2017-11-01T17:16:34.769Z,37.83
2017-11-01T17:19:02.380Z,38.43
2017-11-01T17:21:29.873Z,38.17
2017-11-01T17:23:57.402Z,37.17
2017-11-01T17:26:24.887Z,38.83
2017-11-01T17:28:52.388Z,41.83
2017-11-01T17:31:19.909Z,34.97
2017-11-01T17:33:47.510Z,35.37
2017-11-01T17:36:15.001Z,38.10
2017-11-01T17:38:42.632Z,38.00
2017-11-01T17:41:10.126Z,37.20
2017-11-01T17:43:37.628Z,38.73
2017-11-01T17:46:05.145Z,36.77
2017-11-01T17:48:32.645Z,38.70
2017-11-01T17:51:00.164Z,40.50
2017-11-01T17:53:27.673Z,40.20
2017-11-01T17:55:55.186Z,36.83
2017-11-01T17:58:22.724Z,39.10
2017-11-01T18:00:50.281Z,40.40
2017-11-01T18:03:17.771Z,34.67
2017-11-01T18:05:45.333Z,36.43
2017-11-01T18:08:12.825Z,38.30
2017-11-01T18:10:40.316Z,37.20
2017-11-01T18:13:07.848Z,40.90
2017-11-01T18:15:35.338Z,37.03
2017-11-01T18:18:02.879Z,39.13
2017-11-01T18:20:30.393Z,38.33
2017-11-01T18:22:57.893Z,41.03
2017-11-01T18:25:25.424Z,40.10
2017-11-01T18:27:52.999Z,38.13
2017-11-01T18:30:20.500Z,38.20
2017-11-01T18:32:48.009Z,36.30
2017-11-01T18:35:15.572Z,39.07
2017-11-01T18:37:43.072Z,36.10
2017-11-01T18:40:10.570Z,41.83
2017-11-01T18:42:38.128Z,36.03
2017-11-01T18:45:05.706Z,41.07
2017-11-01T18:47:33.206Z,39.63
2017-11-01T18:50:00.731Z,39.20
2017-11-01T18:52:28.221Z,40.40
2017-11-01T18:54:55.777Z,38.20
2017-11-01T18:57:23.271Z,41.50
2017-11-01T18:59:50.884Z,37.97
2017-11-01T19:02:18.436Z,38.40
2017-11-01T19:04:45.946Z,36.47
2017-11-01T19:07:13.475Z,44.30
2017-11-01T19:09:40.968Z,40.07
2017-11-01T19:12:08.503Z,41.27
2017-11-01T19:14:36.019Z,42.90
2017-11-01T19:17:03.509Z,37.07
2017-11-01T19:19:31.047Z,34.60
2017-11-01T19:21:58.591Z,40.97
2017-11-01T19:24:26.145Z,36.80
2017-11-01T19:26:53.718Z,45.87
2017-11-01T19:29:21.246Z,42.37
2017-11-01T19:31:48.733Z,36.40
2017-11-01T19:34:16.269Z,36.80
2017-11-01T19:36:43.758Z,39.67
2017-11-01T19:39:11.272Z,39.13
2017-11-01T19:41:38.831Z,44.20
2017-11-01T19:44:06.334Z,38.03
2017-11-01T19:46:33.881Z,37.63
2017-11-01T19:49:01.404Z,37.20
2017-11-01T19:51:28.896Z,41.57
2017-11-01T19:53:56.554Z,43.77
2017-11-01T19:56:24.056Z,35.40
2017-11-01T19:58:51.556Z,49.90
2017-11-01T20:01:19.086Z,45.20
2017-11-01T20:03:46.588Z,48.03
2017-11-01T20:06:14.092Z,47.50
2017-11-01T20:08:41.625Z,51.07
2017-11-01T20:11:09.123Z,42.60
2017-11-01T20:13:36.616Z,36.30
2017-11-01T20:16:05.140Z,48.93
2017-11-01T20:18:32.664Z,43.80
2017-11-01T20:21:00.215Z,38.43
2017-11-01T20:23:27.739Z,41.73
2017-11-01T20:25:55.356Z,47.40
2017-11-01T20:28:22.883Z,38.43
2017-11-01T20:30:50.374Z,49.50
2017-11-01T20:33:17.875Z,51.37
2017-11-01T20:35:45.466Z,34.70
2017-11-01T20:38:12.960Z,42.07
2017-11-01T20:40:40.493Z,46.60
2017-11-01T20:43:08.045Z,38.23
2017-11-01T20:45:35.543Z,39.50
2017-11-01T20:48:03.031Z,41.00
2017-11-01T20:50:30.567Z,32.37
2017-11-01T20:52:58.056Z,45.63
2017-11-01T20:55:25.635Z,44.70
2017-11-01T20:57:53.156Z,49.07
2017-11-01T21:00:20.653Z,35.20
2017-11-01T21:02:48.218Z,33.13
2017-11-01T21:05:15.713Z,43.70
2017-11-01T21:07:43.205Z,45.33
2017-11-01T21:10:10.740Z,40.93
2017-11-01T21:12:38.232Z,38.93
2017-11-01T21:15:05.735Z,41.90
2017-11-01T21:17:33.267Z,38.90
2017-11-01T21:20:00.800Z,36.67
2017-11-01T21:22:28.293Z,38.10
2017-11-01T21:24:55.792Z,36.03
2017-11-01T21:27:23.394Z,35.03
2017-11-01T21:29:50.947Z,36.77
2017-11-01T21:32:18.441Z,38.40
2017-11-01T21:34:45.992Z,42.30
2017-11-01T21:37:13.493Z,32.70
2017-11-01T21:39:41.146Z,32.90
2017-11-01T21:42:08.675Z,42.57
2017-11-01T21:44:36.172Z,32.03
2017-11-01T21:47:03.677Z,28.77
2017-11-01T21:49:31.233Z,35.73
2017-11-01T21:51:58.789Z,37.20
2017-11-01T21:54:26.289Z,39.77
2017-11-01T21:56:53.810Z,24.40
2017-11-01T21:59:21.299Z,26.80
2017-11-01T22:01:48.805Z,38.13
2017-11-01T22:04:16.345Z,28.10
2017-11-01T22:06:43.844Z,24.70
2017-11-01T22:09:11.358Z,27.37
2017-11-01T22:11:38.953Z,25.20
2017-11-01T22:14:06.513Z,31.90
2017-11-01T22:16:34.005Z,23.87
2017-11-01T22:19:01.630Z,30.40
2017-11-01T22:21:29.127Z,31.23
2017-11-01T22:23:56.619Z,32.87
2017-11-01T22:26:24.146Z,25.60
2017-11-01T22:28:51.653Z,33.23
2017-11-01T22:31:19.192Z,22.70
2017-11-01T22:33:46.692Z,27.50
2017-11-01T22:36:14.185Z,26.10
2017-11-01T22:38:41.756Z,23.27
2017-11-01T22:41:09.257Z,23.93
2017-11-01T22:43:36.812Z,25.00
2017-11-01T22:46:04.339Z,23.20
2017-11-01T22:48:31.831Z,23.50
2017-11-01T22:50:59.328Z,30.97
2017-11-01T22:53:26.885Z,27.30
2017-11-01T22:55:54.378Z,28.00
2017-11-01T22:58:21.877Z,33.00
2017-11-01T23:00:49.425Z,24.10
2017-11-01T23:03:16.917Z,22.93
2017-11-01T23:05:44.420Z,25.47
2017-11-01T23:08:11.955Z,26.87
2017-11-01T23:10:39.456Z,24.20
2017-11-01T23:13:06.949Z,23.70
2017-11-01T23:15:34.581Z,22.83
2017-11-01T23:18:02.077Z,23.30
2017-11-01T23:20:29.574Z,23.87
2017-11-01T23:22:57.144Z,26.83
2017-11-01T23:25:24.649Z,25.03
2017-11-01T23:27:52.168Z,24.10
2017-11-01T23:30:19.696Z,24.13
2017-11-01T23:32:47.265Z,24.23
2017-11-01T23:35:14.809Z,22.90
2017-11-01T23:37:42.405Z,23.87
2017-11-01T23:40:09.896Z,23.67
2017-11-01T23:42:37.531Z,23.40
2017-11-01T23:45:05.080Z,22.60
2017-11-01T23:47:32.576Z,21.03
2017-11-01T23:50:00.116Z,21.00
2017-11-01T23:52:27.614Z,20.97
2017-11-01T23:54:55.124Z,19.10
2017-11-01T23:57:22.680Z,19.27
2017-11-01T23:59:50.168Z,22.10
